^^
Storico Meteosantamaria
 
Rapporto Giornaliero per Novembre 17, 2018 Unità:  Metrico    Imperiale   Entrambi
Rapporto Giornaliero Rapporto Settimanale Rapporto Mensile Rapporto Annuale Rapporto Personalizzato
  Attuale: Max: Min: Media:
Temperatura: 10.3 °C 11.3 °C 8.0 °C 9.3 °C
Punto di rugiada: 1.1 °C 2.3 °C 0.2 °C 1.2 °C
Umidità;: 53% 59% 52% 57%
Vel.Vento: 18.2km/h 35.7km/h 0.0km/h 17.3km/h
Raffiche: 20.4km/h 51.8km/h - -
DirezioneENE - - ENE
Pressione: 1015.9 hPa 1019.9 hPa 1015.9 hPa -
Pioggia: 0.0 mm      
Historical Graphs
 
 
Dati di Novembre 17, 2018
Ora Temperatura Punto di rugiada Pressione Direzione Vento Raffiche Umidità Intensità pioggia solare
00:04 9.3 °C 1.7 °C 1019.9 hPa East 8.2 km/h 11.3 km/h 59% 0.0 mm 0.00 W/m2
00:09 9.3 °C 1.4 °C 1019.9 hPa ENE 15.6 km/h 24.1 km/h 58% 0.0 mm 0.00 W/m2
00:14 9.6 °C 1.7 °C 1019.9 hPa WSW 11.3 km/h 13.0 km/h 58% 0.0 mm 0.00 W/m2
00:18 9.4 °C 1.6 °C 1019.9 hPa ENE 5.6 km/h 18.5 km/h 58% 0.0 mm 0.00 W/m2
00:23 9.3 °C 1.4 °C 1019.9 hPa ENE 9.5 km/h 13.0 km/h 58% 0.0 mm 0.00 W/m2
00:28 9.3 °C 1.4 °C 1019.9 hPa SSW 10.9 km/h 14.8 km/h 58% 0.0 mm 0.00 W/m2
00:33 9.3 °C 1.4 °C 1018.9 hPa NNE 4.2 km/h 5.6 km/h 58% 0.0 mm 0.00 W/m2
00:37 9.3 °C 1.4 °C 1018.9 hPa NNW 8.2 km/h 12.1 km/h 58% 0.0 mm 0.00 W/m2
00:42 9.3 °C 1.4 °C 1018.9 hPa East 9.5 km/h 14.8 km/h 58% 0.0 mm 0.00 W/m2
00:47 9.4 °C 1.6 °C 1019.9 hPa NNE 8.7 km/h 12.1 km/h 58% 0.0 mm 0.00 W/m2
00:53 9.5 °C 1.6 °C 1019.9 hPa ENE 13.8 km/h 15.6 km/h 58% 0.0 mm 0.00 W/m2
00:56 9.4 °C 1.6 °C 1019.9 hPa SE 4.2 km/h 5.6 km/h 58% 0.0 mm 0.00 W/m2
01:04 8.9 °C 1.1 °C 1019.9 hPa North 3.1 km/h 6.0 km/h 58% 0.0 mm 0.00 W/m2
01:09 8.9 °C 1.1 °C 1019.9 hPa ENE 5.6 km/h 9.5 km/h 58% 0.0 mm 0.00 W/m2
01:14 8.6 °C 0.8 °C 1019.9 hPa NE 2.3 km/h 5.6 km/h 58% 0.0 mm 0.00 W/m2
01:18 8.5 °C 0.7 °C 1019.9 hPa NE 4.7 km/h 6.0 km/h 58% 0.0 mm 0.00 W/m2
01:23 8.7 °C 0.9 °C 1019.9 hPa NE 4.2 km/h 5.6 km/h 58% 0.0 mm 0.00 W/m2
01:29 8.6 °C 0.8 °C 1019.9 hPa NNE 3.7 km/h 5.6 km/h 58% 0.0 mm 0.00 W/m2
01:34 8.4 °C 0.6 °C 1019.9 hPa Calm     58% 0.0 mm 0.00 W/m2
01:38 8.3 °C 0.5 °C 1019.9 hPa Calm   5.6 km/h 58% 0.0 mm 0.00 W/m2
01:44 8.6 °C 0.8 °C 1019.9 hPa ENE 6.4 km/h 7.4 km/h 58% 0.0 mm 0.00 W/m2
01:49 8.6 °C 0.8 °C 1019.9 hPa NE 9.5 km/h 11.3 km/h 58% 0.0 mm 0.00 W/m2
01:54 8.6 °C 0.8 °C 1019.9 hPa NE 7.4 km/h 11.1 km/h 58% 0.0 mm 0.00 W/m2
01:58 8.5 °C 0.7 °C 1019.9 hPa NE 9.2 km/h 14.8 km/h 58% 0.0 mm 0.00 W/m2
02:02 8.8 °C 1.0 °C 1018.9 hPa NE 6.0 km/h 9.3 km/h 58% 0.0 mm 0.00 W/m2
02:08 8.7 °C 0.9 °C 1018.9 hPa NE 8.7 km/h 12.1 km/h 58% 0.0 mm 0.00 W/m2
02:13 8.5 °C 0.7 °C 1018.9 hPa NNE 9.2 km/h 13.0 km/h 58% 0.0 mm 0.00 W/m2
02:18 8.7 °C 0.9 °C 1019.9 hPa ENE 9.2 km/h 16.7 km/h 58% 0.0 mm 0.00 W/m2
02:22 8.8 °C 1.0 °C 1019.9 hPa ENE 5.6 km/h 8.2 km/h 58% 0.0 mm 0.00 W/m2
02:27 8.7 °C 0.9 °C 1019.9 hPa NE 8.2 km/h 11.1 km/h 58% 0.0 mm 0.00 W/m2
02:33 8.9 °C 1.1 °C 1018.9 hPa ENE 8.2 km/h 15.6 km/h 58% 0.0 mm 0.00 W/m2
02:38 9.0 °C 1.2 °C 1018.9 hPa NE 11.6 km/h 14.8 km/h 58% 0.0 mm 0.00 W/m2
02:43 8.8 °C 1.0 °C 1018.9 hPa NE 9.5 km/h 16.9 km/h 58% 0.0 mm 0.00 W/m2
02:48 9.1 °C 1.3 °C 1019.9 hPa ENE 16.9 km/h 20.4 km/h 58% 0.0 mm 0.00 W/m2
02:53 9.0 °C 1.2 °C 1019.9 hPa ENE 10.5 km/h 15.6 km/h 58% 0.0 mm 0.00 W/m2
02:58 8.7 °C 0.9 °C 1019.9 hPa NE 16.9 km/h 20.4 km/h 58% 0.0 mm 0.00 W/m2
03:03 8.6 °C 0.8 °C 1018.9 hPa ENE 11.3 km/h 14.8 km/h 58% 0.0 mm 0.00 W/m2
03:08 8.5 °C 0.7 °C 1018.9 hPa ENE 11.6 km/h 16.7 km/h 58% 0.0 mm 0.00 W/m2
03:14 8.6 °C 0.8 °C 1018.9 hPa NNE 11.6 km/h 14.8 km/h 58% 0.0 mm 0.00 W/m2
03:18 8.6 °C 0.8 °C 1017.9 hPa NNE 14.2 km/h 20.3 km/h 58% 0.0 mm 0.00 W/m2
03:23 8.5 °C 0.7 °C 1017.9 hPa ENE 21.6 km/h 29.6 km/h 58% 0.0 mm 0.00 W/m2
03:29 8.2 °C 0.4 °C 1017.9 hPa ENE 14.6 km/h 18.5 km/h 58% 0.0 mm 0.00 W/m2
03:34 8.1 °C 0.6 °C 1017.9 hPa ENE 9.2 km/h 11.3 km/h 59% 0.0 mm 0.00 W/m2
03:39 8.4 °C 0.6 °C 1017.9 hPa ENE 11.6 km/h 13.4 km/h 58% 0.0 mm 0.00 W/m2
03:43 8.3 °C 0.5 °C 1017.9 hPa ENE 7.7 km/h 13.8 km/h 58% 0.0 mm 0.00 W/m2
03:49 8.2 °C 0.4 °C 1017.9 hPa West 5.6 km/h 8.2 km/h 58% 0.0 mm 0.00 W/m2
03:54 8.4 °C 0.6 °C 1017.9 hPa North 4.7 km/h 9.2 km/h 58% 0.0 mm 0.00 W/m2
03:58 8.3 °C 0.5 °C 1017.9 hPa WNW 6.4 km/h 11.3 km/h 58% 0.0 mm 0.00 W/m2
04:03 8.1 °C 0.3 °C 1017.9 hPa NE 13.4 km/h 14.8 km/h 58% 0.0 mm 0.00 W/m2
04:08 8.0 °C 0.4 °C 1017.9 hPa NW 7.4 km/h 9.5 km/h 59% 0.0 mm 0.00 W/m2
04:13 8.1 °C 0.6 °C 1017.9 hPa North 8.7 km/h 11.1 km/h 59% 0.0 mm 0.00 W/m2
04:18 8.2 °C 0.7 °C 1018.9 hPa NNE 14.2 km/h 24.1 km/h 59% 0.0 mm 0.00 W/m2
04:23 8.7 °C 0.9 °C 1018.9 hPa ENE 25.6 km/h 33.3 km/h 58% 0.0 mm 0.00 W/m2
04:29 8.6 °C 0.8 °C 1018.9 hPa NNE 20.3 km/h 39.3 km/h 58% 0.0 mm 0.00 W/m2
04:33 8.9 °C 1.1 °C 1017.9 hPa NE 18.7 km/h 33.3 km/h 58% 0.0 mm 0.00 W/m2
04:38 8.8 °C 1.0 °C 1017.9 hPa ENE 22.0 km/h 27.8 km/h 58% 0.0 mm 0.00 W/m2
04:43 8.5 °C 0.7 °C 1017.9 hPa ENE 8.7 km/h 16.4 km/h 58% 0.0 mm 0.00 W/m2
04:48 8.6 °C 0.8 °C 1017.9 hPa NE 14.2 km/h 18.5 km/h 58% 0.0 mm 0.00 W/m2
04:54 8.5 °C 0.7 °C 1017.9 hPa ENE 27.0 km/h 42.6 km/h 58% 0.0 mm 0.00 W/m2
04:58 8.7 °C 0.9 °C 1017.9 hPa ENE 26.4 km/h 33.9 km/h 58% 0.0 mm 0.00 W/m2
05:04 8.6 °C 0.8 °C 1017.9 hPa NNE 21.6 km/h 24.1 km/h 58% 0.0 mm 0.00 W/m2
05:06 8.6 °C 0.8 °C 1017.9 hPa NE 16.9 km/h 25.9 km/h 58% 0.0 mm 0.00 W/m2
05:13 8.3 °C 0.5 °C 1017.9 hPa NNE 18.2 km/h 29.8 km/h 58% 0.0 mm 0.00 W/m2
05:19 8.6 °C 0.8 °C 1016.9 hPa NE 29.8 km/h 44.9 km/h 58% 0.0 mm 0.00 W/m2
05:24 8.6 °C 0.8 °C 1016.9 hPa East 16.9 km/h 25.1 km/h 58% 0.0 mm 0.00 W/m2
05:28 8.6 °C 0.8 °C 1016.9 hPa ENE 32.3 km/h 51.8 km/h 58% 0.0 mm 0.00 W/m2
05:33 8.6 °C 0.8 °C 1017.9 hPa NE 17.7 km/h 21.1 km/h 58% 0.0 mm 0.00 W/m2
05:39 8.6 °C 0.8 °C 1017.9 hPa East 26.4 km/h 33.9 km/h 58% 0.0 mm 0.00 W/m2
05:44 8.3 °C 0.5 °C 1017.9 hPa North 11.3 km/h 16.9 km/h 58% 0.0 mm 0.00 W/m2
05:47 8.5 °C 0.7 °C 1016.9 hPa NE 22.0 km/h 29.6 km/h 58% 0.0 mm 0.00 W/m2
05:53 8.6 °C 0.8 °C 1016.9 hPa NE 26.7 km/h 38.0 km/h 58% 0.0 mm 0.00 W/m2
05:58 8.7 °C 0.7 °C 1016.9 hPa ESE 20.6 km/h 29.6 km/h 57% 0.0 mm 0.00 W/m2
06:03 8.6 °C 0.8 °C 1017.9 hPa NE 13.4 km/h 37.5 km/h 58% 0.0 mm 0.00 W/m2
06:08 8.8 °C 0.7 °C 1017.9 hPa East 26.7 km/h 42.6 km/h 57% 0.0 mm 0.00 W/m2
06:13 8.8 °C 0.7 °C 1017.9 hPa NE 12.4 km/h 42.6 km/h 57% 0.0 mm 0.00 W/m2
06:18 8.9 °C 0.8 °C 1016.9 hPa ENE 20.6 km/h 28.0 km/h 57% 0.0 mm 0.00 W/m2
06:24 8.9 °C 0.8 °C 1016.9 hPa ENE 23.8 km/h 42.6 km/h 57% 0.0 mm 0.00 W/m2
06:28 9.0 °C 0.9 °C 1016.9 hPa ENE 35.7 km/h 48.1 km/h 57% 0.0 mm 0.00 W/m2
06:33 8.6 °C 0.6 °C 1017.9 hPa NE 15.1 km/h 20.4 km/h 57% 0.0 mm 0.00 W/m2
06:38 8.3 °C 0.5 °C 1017.9 hPa ENE 14.6 km/h 30.2 km/h 58% 0.0 mm 0.00 W/m2
06:44 8.3 °C 0.5 °C 1017.9 hPa NE 12.9 km/h 19.3 km/h 58% 0.0 mm 0.00 W/m2
06:49 8.2 °C 0.4 °C 1017.9 hPa ENE 11.6 km/h 21.1 km/h 58% 0.0 mm 0.00 W/m2
06:53 8.1 °C 0.3 °C 1017.9 hPa East 8.7 km/h 13.4 km/h 58% 0.0 mm 0.00 W/m2
06:58 8.0 °C 0.2 °C 1017.9 hPa North 9.5 km/h 15.1 km/h 58% 0.0 mm 0.00 W/m2
07:03 8.0 °C 0.4 °C 1016.9 hPa NNE 8.2 km/h 11.1 km/h 59% 0.0 mm 0.00 W/m2
07:08 8.0 °C 0.4 °C 1016.9 hPa NE 10.5 km/h 15.1 km/h 59% 0.0 mm 0.00 W/m2
07:14 8.4 °C 0.6 °C 1016.9 hPa North 9.2 km/h 15.6 km/h 58% 0.0 mm 0.00 W/m2
07:19 8.6 °C 0.8 °C 1017.9 hPa ENE 23.3 km/h 31.5 km/h 58% 0.0 mm 0.00 W/m2
07:23 8.7 °C 0.9 °C 1017.9 hPa NE 9.2 km/h 20.4 km/h 58% 0.0 mm 0.00 W/m2
07:28 8.6 °C 0.8 °C 1017.9 hPa ENE 17.7 km/h 24.6 km/h 58% 0.0 mm 0.00 W/m2
07:34 8.6 °C 0.8 °C 1017.9 hPa ENE 15.1 km/h 19.8 km/h 58% 0.0 mm 0.00 W/m2
07:39 8.3 °C 0.5 °C 1017.9 hPa NNE 12.1 km/h 16.9 km/h 58% 0.0 mm 0.00 W/m2
07:44 8.2 °C 0.7 °C 1017.9 hPa North 13.8 km/h 16.9 km/h 59% 0.0 mm 3.00 W/m2
07:48 8.2 °C 0.7 °C 1017.9 hPa NE 11.3 km/h 16.7 km/h 59% 0.0 mm 8.20 W/m2
07:53 8.3 °C 0.7 °C 1017.9 hPa ENE 14.6 km/h 20.4 km/h 59% 0.0 mm 14.50 W/m2
07:58 8.9 °C 1.3 °C 1017.9 hPa ESE 25.6 km/h 31.5 km/h 59% 0.0 mm 20.70 W/m2
08:03 8.9 °C 1.1 °C 1017.9 hPa NE 20.6 km/h 33.9 km/h 58% 0.0 mm 26.60 W/m2
08:08 8.8 °C 1.2 °C 1017.9 hPa East 9.2 km/h 20.3 km/h 59% 0.0 mm 32.90 W/m2
08:13 8.8 °C 1.2 °C 1017.9 hPa NE 10.5 km/h 14.8 km/h 59% 0.0 mm 38.80 W/m2
08:19 9.0 °C 1.2 °C 1017.9 hPa NE 16.9 km/h 24.1 km/h 58% 0.0 mm 46.00 W/m2
08:23 9.1 °C 1.5 °C 1017.9 hPa ENE 11.3 km/h 18.7 km/h 59% 0.0 mm 50.60 W/m2
08:28 9.4 °C 1.6 °C 1017.9 hPa East 22.0 km/h 38.9 km/h 58% 0.0 mm 56.60 W/m2
08:33 9.5 °C 1.6 °C 1017.9 hPa ESE 15.6 km/h 23.8 km/h 58% 0.0 mm 62.50 W/m2
08:39 9.7 °C 1.8 °C 1017.9 hPa ENE 14.6 km/h 32.8 km/h 58% 0.0 mm 69.10 W/m2
08:43 9.7 °C 1.6 °C 1017.9 hPa ENE 27.5 km/h 44.4 km/h 57% 0.0 mm 73.70 W/m2
08:48 9.8 °C 1.7 °C 1017.9 hPa NNE 22.8 km/h 37.5 km/h 57% 0.0 mm 79.20 W/m2
08:53 9.8 °C 1.7 °C 1017.9 hPa ENE 25.1 km/h 29.8 km/h 57% 0.0 mm 84.50 W/m2
08:58 9.8 °C 1.9 °C 1017.9 hPa ENE 18.7 km/h 28.0 km/h 58% 0.0 mm 89.80 W/m2
09:04 9.9 °C 1.8 °C 1017.9 hPa North 18.8 km/h 32.0 km/h 57% 0.0 mm 96.00 W/m2
09:09 9.9 °C 1.8 °C 1017.9 hPa ENE 28.0 km/h 33.3 km/h 57% 0.0 mm 101.30 W/m2
09:14 9.9 °C 1.8 °C 1017.9 hPa ENE 29.3 km/h 37.0 km/h 57% 0.0 mm 106.20 W/m2
09:18 10.0 °C 1.9 °C 1017.9 hPa NNE 23.3 km/h 28.5 km/h 57% 0.0 mm 110.20 W/m2
09:24 10.1 °C 1.9 °C 1017.9 hPa ENE 23.3 km/h 37.0 km/h 57% 0.0 mm 116.10 W/m2
09:29 10.1 °C 1.9 °C 1017.9 hPa SE 24.6 km/h 40.7 km/h 57% 0.0 mm 120.70 W/m2
09:34 10.2 °C 2.1 °C 1017.9 hPa ENE 21.1 km/h 28.5 km/h 57% 0.0 mm 125.30 W/m2
09:38 10.2 °C 2.1 °C 1017.9 hPa ENE 26.4 km/h 33.3 km/h 57% 0.0 mm 128.90 W/m2
09:44 10.2 °C 1.8 °C 1017.9 hPa ENE 19.3 km/h 32.0 km/h 56% 0.0 mm 134.20 W/m2
09:49 10.2 °C 1.8 °C 1017.9 hPa NE 27.0 km/h 38.9 km/h 56% 0.0 mm 138.40 W/m2
09:53 10.2 °C 1.8 °C 1017.9 hPa ENE 24.1 km/h 42.6 km/h 56% 0.0 mm 142.00 W/m2
09:58 10.3 °C 1.9 °C 1017.9 hPa ENE 29.3 km/h 45.7 km/h 56% 0.0 mm 146.00 W/m2
10:03 10.3 °C 1.9 °C 1017.9 hPa ENE 31.5 km/h 42.6 km/h 56% 0.0 mm 149.90 W/m2
10:06 10.3 °C 1.9 °C 1017.9 hPa ENE 23.3 km/h 46.3 km/h 56% 0.0 mm 152.20 W/m2
10:13 10.4 °C 2.0 °C 1017.9 hPa ENE 29.8 km/h 33.9 km/h 56% 0.0 mm 157.50 W/m2
10:18 10.5 °C 1.8 °C 1017.9 hPa ENE 28.0 km/h 35.2 km/h 55% 0.0 mm 161.10 W/m2
10:23 10.6 °C 1.9 °C 1017.9 hPa ENE 24.1 km/h 31.5 km/h 55% 0.0 mm 164.40 W/m2
10:29 10.7 °C 2.0 °C 1017.9 hPa ENE 16.4 km/h 19.3 km/h 55% 0.0 mm 168.70 W/m2
10:33 10.7 °C 2.0 °C 1017.9 hPa ENE 16.4 km/h 20.4 km/h 55% 0.0 mm 171.00 W/m2
10:38 10.9 °C 2.2 °C 1017.9 hPa ENE 18.2 km/h 31.5 km/h 55% 0.0 mm 174.30 W/m2
10:43 10.8 °C 2.1 °C 1017.9 hPa ENE 12.4 km/h 22.8 km/h 55% 0.0 mm 177.20 W/m2
10:49 10.8 °C 2.1 °C 1017.9 hPa East 12.9 km/h 20.6 km/h 55% 0.0 mm 180.50 W/m2
10:53 10.9 °C 1.9 °C 1017.9 hPa ENE 18.8 km/h 24.6 km/h 54% 0.0 mm 182.50 W/m2
10:58 10.9 °C 1.7 °C 1017.9 hPa NNE 21.1 km/h 24.1 km/h 53% 0.0 mm 185.10 W/m2
11:03 11.1 °C 2.1 °C 1017.9 hPa ENE 19.8 km/h 28.5 km/h 54% 0.0 mm 187.40 W/m2
11:08 11.3 °C 2.3 °C 1017.9 hPa NNE 14.2 km/h 19.3 km/h 54% 0.0 mm 189.70 W/m2
11:13 11.2 °C 1.9 °C 1017.9 hPa East 21.6 km/h 29.6 km/h 53% 0.0 mm 192.00 W/m2
11:19 11.1 °C 1.9 °C 1017.9 hPa ENE 25.1 km/h 32.3 km/h 53% 0.0 mm 194.30 W/m2
11:24 10.8 °C 1.6 °C 1017.9 hPa ENE 31.1 km/h 33.3 km/h 53% 0.0 mm 196.30 W/m2
11:28 10.7 °C 1.5 °C 1017.9 hPa NE 26.4 km/h 38.9 km/h 53% 0.0 mm 197.60 W/m2
11:34 10.6 °C 1.4 °C 1017.9 hPa ENE 10.9 km/h 19.3 km/h 53% 0.0 mm 199.30 W/m2
11:39 10.5 °C 1.3 °C 1017.9 hPa ENE 19.8 km/h 24.1 km/h 53% 0.0 mm 200.60 W/m2
11:44 10.5 °C 1.3 °C 1017.9 hPa ENE 15.6 km/h 18.5 km/h 53% 0.0 mm 201.90 W/m2
11:47 10.5 °C 1.6 °C 1017.9 hPa ENE 18.8 km/h 28.5 km/h 54% 0.0 mm 202.50 W/m2
11:53 10.4 °C 1.2 °C 1017.9 hPa ENE 32.8 km/h 46.3 km/h 53% 0.0 mm 203.90 W/m2
11:58 10.3 °C 1.1 °C 1017.9 hPa East 29.3 km/h 37.0 km/h 53% 0.0 mm 204.90 W/m2
12:03 10.3 °C 1.1 °C 1016.9 hPa NE 32.8 km/h 44.4 km/h 53% 0.0 mm 205.50 W/m2
12:08 10.3 °C 0.9 °C 1016.9 hPa NNE 31.1 km/h 42.6 km/h 52% 0.0 mm 205.80 W/m2
12:13 10.3 °C 0.9 °C 1016.9 hPa North 23.8 km/h 29.6 km/h 52% 0.0 mm 206.20 W/m2
12:19 10.3 °C 0.9 °C 1016.9 hPa ENE 26.4 km/h 33.9 km/h 52% 0.0 mm 206.50 W/m2
12:23 10.3 °C 0.9 °C 1016.9 hPa ENE 31.5 km/h 50.0 km/h 52% 0.0 mm 206.80 W/m2
12:28 10.3 °C 0.9 °C 1016.9 hPa ENE 29.8 km/h 44.4 km/h 52% 0.0 mm 206.50 W/m2
12:33 10.3 °C 0.9 °C 1016.9 hPa ENE 20.3 km/h 31.1 km/h 52% 0.0 mm 206.50 W/m2
12:39 10.3 °C 1.1 °C 1016.9 hPa East 29.3 km/h 31.5 km/h 53% 0.0 mm 206.20 W/m2
12:43 10.3 °C 1.1 °C 1016.9 hPa ENE 26.7 km/h 41.5 km/h 53% 0.0 mm 205.50 W/m2
12:47 10.3 °C 1.1 °C 1016.9 hPa ENE 25.1 km/h 33.3 km/h 53% 0.0 mm 205.20 W/m2
12:53 10.4 °C 1.2 °C 1016.9 hPa East 27.0 km/h 29.6 km/h 53% 0.0 mm 204.20 W/m2
12:59 10.4 °C 1.2 °C 1016.9 hPa East 30.2 km/h 38.9 km/h 53% 0.0 mm 203.20 W/m2
13:04 10.5 °C 1.6 °C 1016.9 hPa ENE 32.0 km/h 38.9 km/h 54% 0.0 mm 201.90 W/m2
13:09 10.6 °C 1.7 °C 1016.9 hPa ENE 27.5 km/h 42.6 km/h 54% 0.0 mm 200.60 W/m2
13:14 10.6 °C 1.7 °C 1016.9 hPa NE 29.3 km/h 38.9 km/h 54% 0.0 mm 199.30 W/m2
13:18 10.5 °C 1.6 °C 1015.9 hPa ENE 25.6 km/h 44.4 km/h 54% 0.0 mm 198.30 W/m2
13:24 10.5 °C 1.3 °C 1015.9 hPa ENE 29.3 km/h 37.0 km/h 53% 0.0 mm 196.30 W/m2
13:29 10.5 °C 1.6 °C 1015.9 hPa NE 22.8 km/h 33.3 km/h 54% 0.0 mm 194.30 W/m2
13:34 10.5 °C 1.6 °C 1016.9 hPa ENE 26.4 km/h 38.9 km/h 54% 0.0 mm 192.40 W/m2
13:36 10.5 °C 1.3 °C 1016.9 hPa ESE 29.3 km/h 35.2 km/h 53% 0.0 mm 191.70 W/m2
14:07 10.5 °C 1.3 °C 1016.9 hPa ENE 16.4 km/h 35.2 km/h 53% 0.0 mm 175.90 W/m2
14:13 10.4 °C 1.2 °C 1015.9 hPa ENE 17.4 km/h 25.9 km/h 53% 0.0 mm 172.30 W/m2
14:19 10.3 °C 1.1 °C 1015.9 hPa ENE 18.2 km/h 20.4 km/h 53% 0.0 mm 168.70 W/m2
Meteosantamaria, Umbria, ITALIA
per gentile concessione di Weather Underground - 2 mb